createdAt,value
2019-04-27T00:00:10.027Z,92.30
2019-04-27T00:02:40.116Z,92.20
2019-04-27T00:05:10.415Z,92.20
2019-04-27T00:07:40.506Z,92.20
2019-04-27T00:10:10.822Z,92.30
2019-04-27T00:12:39.326Z,92.30
2019-04-27T00:15:09.467Z,92.30
2019-04-27T00:17:49.599Z,92.30
2019-04-27T00:20:22.335Z,92.20
2019-04-27T00:22:53.550Z,92.10
2019-04-27T00:25:23.003Z,92.10
2019-04-27T00:27:51.515Z,92.10
2019-04-27T00:30:20.107Z,92.00
2019-04-27T00:32:48.710Z,92.10
2019-04-27T00:35:18.838Z,92.10
2019-04-27T00:37:54.691Z,91.90
2019-04-27T00:40:36.777Z,92.00
2019-04-27T00:43:05.219Z,92.10
2019-04-27T00:45:33.637Z,92.20
2019-04-27T00:48:03.503Z,92.30
2019-04-27T00:50:33.648Z,92.30
2019-04-27T00:53:03.404Z,92.30
2019-04-27T00:55:34.350Z,92.20
2019-04-27T00:58:10.499Z,92.20
2019-04-27T01:00:55.367Z,92.10
2019-04-27T01:03:25.927Z,92.10
2019-04-27T01:05:54.538Z,92.20
2019-04-27T01:08:23.063Z,92.30
2019-04-27T01:10:51.483Z,92.20
2019-04-27T01:13:19.927Z,92.20
2019-04-27T01:15:48.354Z,92.20
2019-04-27T01:18:16.872Z,92.20
2019-04-27T01:20:45.302Z,92.20
2019-04-27T01:23:13.726Z,92.10
2019-04-27T01:25:46.391Z,92.20
2019-04-27T01:28:20.650Z,92.10
2019-04-27T01:30:54.042Z,92.20
2019-04-27T01:33:22.538Z,92.30
2019-04-27T01:35:50.994Z,92.30
2019-04-27T01:38:19.482Z,92.20
2019-04-27T01:40:49.704Z,92.10
2019-04-27T01:43:18.683Z,92.30
2019-04-27T01:45:48.812Z,92.30
2019-04-27T01:48:23.666Z,92.30
2019-04-27T01:50:49.165Z,92.20
2019-04-27T01:53:19.040Z,92.20
2019-04-27T01:55:49.125Z,92.30
2019-04-27T01:58:20.135Z,92.30
2019-04-27T02:01:06.507Z,92.30
2019-04-27T02:03:36.635Z,92.50
2019-04-27T02:06:05.488Z,92.40
2019-04-27T02:08:33.907Z,92.40
2019-04-27T02:11:02.357Z,92.50
2019-04-27T02:13:30.766Z,92.50
2019-04-27T02:15:59.210Z,92.50
2019-04-27T02:18:35.608Z,92.50
2019-04-27T02:20:59.159Z,92.50
2019-04-27T02:23:29.236Z,92.50
2019-04-27T02:25:58.584Z,92.50
2019-04-27T02:28:44.204Z,92.60
2019-04-27T02:31:30.504Z,92.60
2019-04-27T02:34:03.331Z,92.60
2019-04-27T02:36:31.758Z,92.60
2019-04-27T02:39:00.239Z,92.60
2019-04-27T02:41:29.726Z,92.60
2019-04-27T02:44:01.761Z,92.50
2019-04-27T02:46:31.585Z,92.50
2019-04-27T02:49:06.084Z,92.40
2019-04-27T02:51:34.873Z,92.40
2019-04-27T02:54:03.305Z,92.20
2019-04-27T02:56:31.744Z,92.20
2019-04-27T02:59:00.168Z,92.20
2019-04-27T03:01:30.777Z,92.20
2019-04-27T03:04:00.297Z,92.30
2019-04-27T03:06:29.964Z,92.20
2019-04-27T03:09:00.824Z,92.10
2019-04-27T03:11:31.022Z,91.90
2019-04-27T03:14:04.326Z,91.80
2019-04-27T03:16:52.358Z,91.80
2019-04-27T03:19:34.669Z,91.90
2019-04-27T03:22:09.758Z,91.90
2019-04-27T03:24:55.968Z,91.70
2019-04-27T03:27:26.120Z,91.70
2019-04-27T03:29:54.598Z,91.70
2019-04-27T03:32:23.474Z,91.70
2019-04-27T03:34:52.783Z,91.90
2019-04-27T03:37:21.521Z,91.90
2019-04-27T03:39:50.108Z,91.70
2019-04-27T03:42:20.710Z,91.60
2019-04-27T03:44:50.290Z,91.80
2019-04-27T03:47:19.808Z,91.70
2019-04-27T03:49:50.694Z,91.70
2019-04-27T03:52:29.990Z,91.60
2019-04-27T03:55:06.815Z,91.60
2019-04-27T03:57:36.879Z,91.50
2019-04-27T04:00:10.488Z,91.50
2019-04-27T04:02:40.557Z,91.60
2019-04-27T04:05:09.792Z,91.50
2019-04-27T04:07:40.183Z,91.30
2019-04-27T04:10:10.758Z,91.10
2019-04-27T04:12:56.043Z,91.20
2019-04-27T04:15:24.664Z,91.10
2019-04-27T04:17:53.091Z,91.40
2019-04-27T04:20:23.208Z,91.30
2019-04-27T04:22:51.671Z,91.20
2019-04-27T04:25:20.131Z,91.40
2019-04-27T04:27:50.663Z,91.10
2019-04-27T04:30:20.016Z,90.90
2019-04-27T04:32:51.599Z,90.80
2019-04-27T04:35:25.426Z,91.10
2019-04-27T04:37:53.935Z,91.10
2019-04-27T04:40:27.204Z,91.10
2019-04-27T04:42:57.279Z,91.20
2019-04-27T04:45:27.357Z,91.20
2019-04-27T04:47:59.497Z,91.20
2019-04-27T04:50:30.242Z,91.10
2019-04-27T04:52:59.849Z,91.20
2019-04-27T04:55:30.350Z,91.20
2019-04-27T04:57:59.111Z,91.20
2019-04-27T05:00:29.647Z,91.20
2019-04-27T05:02:59.444Z,91.30
2019-04-27T05:05:29.334Z,91.20
2019-04-27T05:07:58.751Z,91.20
2019-04-27T05:10:28.849Z,91.30
2019-04-27T05:12:59.034Z,91.50
2019-04-27T05:15:29.193Z,91.40
2019-04-27T05:17:59.110Z,91.90
2019-04-27T05:20:41.395Z,92.00
2019-04-27T05:23:09.820Z,92.10
2019-04-27T05:25:39.036Z,92.00
2019-04-27T05:28:09.745Z,91.90
2019-04-27T05:30:39.078Z,92.00
2019-04-27T05:33:08.979Z,92.00
2019-04-27T05:35:38.751Z,92.00
2019-04-27T05:38:11.011Z,92.00
2019-04-27T05:40:39.888Z,92.00
2019-04-27T05:43:09.446Z,92.20
2019-04-27T05:45:57.737Z,92.20
2019-04-27T05:48:32.186Z,92.20
2019-04-27T05:51:02.043Z,92.20
2019-04-27T05:53:30.630Z,92.30
2019-04-27T05:55:59.514Z,92.40
2019-04-27T05:58:28.906Z,92.60
2019-04-27T06:00:59.272Z,92.60
2019-04-27T06:03:29.621Z,92.70
2019-04-27T06:06:01.396Z,92.80
2019-04-27T06:08:29.486Z,92.70
2019-04-27T06:10:59.224Z,92.50
2019-04-27T06:13:30.690Z,91.90
2019-04-27T06:15:59.226Z,91.70
2019-04-27T06:18:29.422Z,90.90
2019-04-27T06:20:59.668Z,90.30
2019-04-27T06:23:28.923Z,73.40
2019-04-27T06:25:57.853Z,67.00
2019-04-27T06:28:26.500Z,64.70
2019-04-27T06:30:54.913Z,66.00
2019-04-27T06:33:32.095Z,66.20
2019-04-27T06:35:53.499Z,66.50
2019-04-27T06:38:21.940Z,66.00
2019-04-27T06:40:50.351Z,67.40
2019-04-27T06:43:19.002Z,68.10
2019-04-27T06:45:48.802Z,67.00
2019-04-27T06:48:19.307Z,64.10
2019-04-27T06:50:49.003Z,62.30
2019-04-27T06:53:19.180Z,61.00
2019-04-27T06:55:49.672Z,46.60
2019-04-27T06:58:19.989Z,46.60
2019-04-27T07:00:49.703Z,36.10
2019-04-27T07:03:18.883Z,41.30
2019-04-27T07:05:48.697Z,40.50
2019-04-27T07:08:18.652Z,41.30
2019-04-27T07:10:48.989Z,34.50
2019-04-27T07:13:19.438Z,41.40
2019-04-27T07:15:48.533Z,34.70
2019-04-27T07:18:18.651Z,36.10
2019-04-27T07:20:48.497Z,30.50
2019-04-27T07:23:18.711Z,33.00
2019-04-27T07:25:48.764Z,33.70
2019-04-27T07:28:18.945Z,33.00
2019-04-27T07:30:48.752Z,33.00
2019-04-27T07:33:18.594Z,32.00
2019-04-27T07:35:48.964Z,32.00
2019-04-27T07:38:19.096Z,31.50
2019-04-27T07:40:48.884Z,32.10
2019-04-27T07:43:24.874Z,33.90
2019-04-27T07:45:53.330Z,33.70
2019-04-27T07:48:21.762Z,33.60
2019-04-27T07:50:50.221Z,33.80
2019-04-27T07:53:19.322Z,32.30
2019-04-27T07:55:49.506Z,30.80
2019-04-27T07:58:21.925Z,31.90
2019-04-27T08:00:49.167Z,32.20
2019-04-27T08:03:19.528Z,35.00
2019-04-27T08:05:49.082Z,31.90
2019-04-27T08:08:18.976Z,29.40
2019-04-27T08:10:50.065Z,30.00
2019-04-27T08:13:19.388Z,30.10
2019-04-27T08:15:49.602Z,30.00
2019-04-27T08:18:18.964Z,30.50
2019-04-27T08:20:49.121Z,29.40
2019-04-27T08:23:19.435Z,30.80
2019-04-27T08:25:49.675Z,31.80
2019-04-27T08:28:38.659Z,31.50
2019-04-27T08:31:11.757Z,29.90
2019-04-27T08:33:40.171Z,29.20
2019-04-27T08:36:09.045Z,29.40
2019-04-27T08:38:38.939Z,28.60
2019-04-27T08:41:08.990Z,29.10
2019-04-27T08:43:39.031Z,30.10
2019-04-27T08:46:08.768Z,30.80
2019-04-27T08:48:39.331Z,30.60
2019-04-27T08:51:09.423Z,30.40
2019-04-27T08:53:39.620Z,30.50
2019-04-27T08:56:09.347Z,31.20
2019-04-27T08:58:38.610Z,29.40
2019-04-27T09:01:10.031Z,30.30
2019-04-27T09:03:37.395Z,32.00
2019-04-27T09:06:09.078Z,31.60
2019-04-27T09:08:41.248Z,29.40
2019-04-27T09:11:13.818Z,29.40
2019-04-27T09:13:46.330Z,28.30
2019-04-27T09:16:18.824Z,27.50
2019-04-27T09:18:49.842Z,27.40
2019-04-27T09:21:19.168Z,26.90
2019-04-27T09:23:48.901Z,27.90
2019-04-27T09:26:18.587Z,27.10
2019-04-27T09:28:49.174Z,26.90
2019-04-27T09:31:17.435Z,27.30
2019-04-27T09:33:45.883Z,27.10
2019-04-27T09:36:14.311Z,27.10
2019-04-27T09:38:42.795Z,26.40
2019-04-27T09:41:11.227Z,26.60
2019-04-27T09:43:39.706Z,26.20
2019-04-27T09:46:08.162Z,27.10
2019-04-27T09:48:36.617Z,26.70
2019-04-27T09:51:06.470Z,26.50
2019-04-27T09:53:36.429Z,28.00
2019-04-27T09:56:05.848Z,28.30
2019-04-27T09:58:36.501Z,27.10
2019-04-27T10:01:06.499Z,27.70
2019-04-27T10:03:36.025Z,27.10
2019-04-27T10:06:05.928Z,27.40
2019-04-27T10:08:36.548Z,27.90
2019-04-27T10:11:05.981Z,26.80
2019-04-27T10:13:36.229Z,27.10
2019-04-27T10:16:05.344Z,27.50
2019-04-27T10:18:34.019Z,27.30
2019-04-27T10:21:02.457Z,27.90
2019-04-27T10:23:30.972Z,27.80
2019-04-27T10:25:59.490Z,27.80
2019-04-27T10:28:27.931Z,28.30
2019-04-27T10:30:56.354Z,28.90
2019-04-27T10:33:25.894Z,30.00
2019-04-27T10:35:56.290Z,32.50
2019-04-27T10:38:25.883Z,35.20
2019-04-27T10:40:54.694Z,36.70
2019-04-27T10:43:23.207Z,33.90
2019-04-27T10:45:51.665Z,34.00
2019-04-27T10:48:20.183Z,35.30
2019-04-27T10:50:48.626Z,37.60
2019-04-27T10:53:17.168Z,36.30
2019-04-27T10:55:46.447Z,41.10
2019-04-27T10:58:16.770Z,37.00
2019-04-27T11:00:46.951Z,35.50
2019-04-27T11:03:17.070Z,35.60
2019-04-27T11:05:47.215Z,34.20
2019-04-27T11:08:16.733Z,36.40
2019-04-27T11:10:46.155Z,38.10
2019-04-27T11:13:16.447Z,42.20
2019-04-27T11:15:46.120Z,49.70
2019-04-27T11:18:16.529Z,51.20
2019-04-27T11:20:46.862Z,50.00
2019-04-27T11:23:16.424Z,40.30
2019-04-27T11:25:46.638Z,41.00
2019-04-27T11:28:15.707Z,36.30
2019-04-27T11:30:44.234Z,43.80
2019-04-27T11:33:12.754Z,33.50
2019-04-27T11:35:48.719Z,39.50
2019-04-27T11:38:17.150Z,36.00
2019-04-27T11:40:46.615Z,30.60
2019-04-27T11:43:16.838Z,32.70
2019-04-27T11:45:45.829Z,32.80
2019-04-27T11:48:16.168Z,29.60
2019-04-27T11:50:45.889Z,28.70
2019-04-27T11:53:22.354Z,28.80
2019-04-27T11:55:47.030Z,29.00
2019-04-27T11:58:16.459Z,30.50
2019-04-27T12:00:45.155Z,29.50
2019-04-27T12:03:13.712Z,29.30
2019-04-27T12:05:42.249Z,29.40
2019-04-27T12:08:10.779Z,28.80
2019-04-27T12:10:39.210Z,28.70
2019-04-27T12:13:07.807Z,29.40
2019-04-27T12:15:36.318Z,28.20
2019-04-27T12:18:08.971Z,29.00
2019-04-27T12:20:35.882Z,28.90
2019-04-27T12:23:06.333Z,29.20
2019-04-27T12:25:36.997Z,29.20
2019-04-27T12:28:13.095Z,29.10
2019-04-27T12:30:52.345Z,28.50
2019-04-27T12:33:20.803Z,28.30
2019-04-27T12:35:49.280Z,28.50
2019-04-27T12:38:18.106Z,27.70
2019-04-27T12:40:46.655Z,27.90
2019-04-27T12:43:15.230Z,28.90
2019-04-27T12:45:45.464Z,28.80
2019-04-27T12:48:13.989Z,28.30
2019-04-27T12:50:42.723Z,29.50
2019-04-27T12:53:30.980Z,29.30
2019-04-27T12:56:09.825Z,28.10
2019-04-27T12:58:39.985Z,27.90
2019-04-27T13:01:12.664Z,27.20
2019-04-27T13:03:41.158Z,27.10
2019-04-27T13:06:09.602Z,26.80
2019-04-27T13:08:38.050Z,27.40
2019-04-27T13:11:06.479Z,27.60
2019-04-27T13:13:36.704Z,28.10
2019-04-27T13:16:06.525Z,27.20
2019-04-27T13:18:36.106Z,28.20
2019-04-27T13:21:04.815Z,27.80
2019-04-27T13:23:33.364Z,27.90
2019-04-27T13:26:01.851Z,27.60
2019-04-27T13:28:30.368Z,27.40
2019-04-27T13:30:58.779Z,27.10
2019-04-27T13:33:27.243Z,27.00
2019-04-27T13:35:55.671Z,26.80
2019-04-27T13:38:26.731Z,27.10
2019-04-27T13:41:08.150Z,27.20
2019-04-27T13:43:39.011Z,27.40
2019-04-27T13:46:09.835Z,29.00
2019-04-27T13:48:56.334Z,28.60
2019-04-27T13:51:32.516Z,27.20
2019-04-27T13:54:01.054Z,27.70
2019-04-27T13:56:29.538Z,27.80
2019-04-27T13:58:58.426Z,27.40
2019-04-27T14:01:26.983Z,28.50
2019-04-27T14:03:55.875Z,27.90
2019-04-27T14:06:24.317Z,27.00
2019-04-27T14:08:52.740Z,27.20
2019-04-27T14:11:21.258Z,27.30
2019-04-27T14:13:49.707Z,27.20
2019-04-27T14:16:19.016Z,26.40
2019-04-27T14:18:48.142Z,26.50
2019-04-27T14:21:16.641Z,26.70
2019-04-27T14:23:45.150Z,27.10
2019-04-27T14:26:13.614Z,26.70
2019-04-27T14:28:42.043Z,27.20
2019-04-27T14:31:10.515Z,26.90
2019-04-27T14:33:39.797Z,27.10
2019-04-27T14:36:08.405Z,27.10
2019-04-27T14:38:36.959Z,26.90
2019-04-27T14:41:05.802Z,27.30
2019-04-27T14:43:34.270Z,27.00
2019-04-27T14:46:02.778Z,27.30
2019-04-27T14:48:31.250Z,27.40
2019-04-27T14:50:59.789Z,27.20
2019-04-27T14:53:28.393Z,26.90
2019-04-27T14:55:58.448Z,27.30
2019-04-27T14:58:28.542Z,27.20
2019-04-27T15:00:58.519Z,28.10
2019-04-27T15:03:27.272Z,27.60
2019-04-27T15:05:56.076Z,27.40
2019-04-27T15:08:25.570Z,27.50
2019-04-27T15:10:54.304Z,26.90
2019-04-27T15:13:22.773Z,27.00
2019-04-27T15:15:51.288Z,27.10
2019-04-27T15:18:20.042Z,27.00
2019-04-27T15:20:48.530Z,28.20
2019-04-27T15:23:16.992Z,28.80
2019-04-27T15:25:47.017Z,28.60
2019-04-27T15:28:17.412Z,30.40
2019-04-27T15:30:50.906Z,32.90
2019-04-27T15:33:33.007Z,33.90
2019-04-27T15:36:03.083Z,35.00
2019-04-27T15:38:43.024Z,36.00
2019-04-27T15:41:14.009Z,36.50
2019-04-27T15:43:44.226Z,35.40
2019-04-27T15:46:12.830Z,35.90
2019-04-27T15:48:41.386Z,37.30
2019-04-27T15:51:17.488Z,35.90
2019-04-27T15:53:41.596Z,35.30
2019-04-27T15:56:10.289Z,35.00
2019-04-27T15:58:38.723Z,32.90
2019-04-27T16:01:11.241Z,48.50
2019-04-27T16:03:38.948Z,60.30
2019-04-27T16:06:11.654Z,62.90
2019-04-27T16:08:44.779Z,67.30
2019-04-27T16:11:15.354Z,70.10
2019-04-27T16:13:38.404Z,74.10
2019-04-27T16:16:08.458Z,72.50
2019-04-27T16:18:38.843Z,73.40
2019-04-27T16:21:10.678Z,75.50
2019-04-27T16:23:42.911Z,75.60
2019-04-27T16:26:10.929Z,76.10
2019-04-27T16:28:38.234Z,72.70
2019-04-27T16:31:06.718Z,68.10
2019-04-27T16:33:35.263Z,67.80
2019-04-27T16:36:06.833Z,65.30
2019-04-27T16:38:35.683Z,78.40
2019-04-27T16:41:04.306Z,69.50
2019-04-27T16:43:33.037Z,69.40
2019-04-27T16:46:04.189Z,69.70
2019-04-27T16:48:34.853Z,68.70
2019-04-27T16:51:03.566Z,67.90
2019-04-27T16:53:39.531Z,70.70
2019-04-27T16:56:14.218Z,68.20
2019-04-27T16:58:39.383Z,66.60
2019-04-27T17:01:12.218Z,67.30
2019-04-27T17:03:41.487Z,68.60
2019-04-27T17:06:09.987Z,69.20
2019-04-27T17:08:39.381Z,70.10
2019-04-27T17:11:13.030Z,71.80
2019-04-27T17:13:44.009Z,69.00
2019-04-27T17:16:14.331Z,70.20
2019-04-27T17:18:52.800Z,69.10
2019-04-27T17:21:23.185Z,69.50
2019-04-27T17:23:50.737Z,71.70
2019-04-27T17:26:21.886Z,70.50
2019-04-27T17:29:16.063Z,67.90
2019-04-27T17:31:41.235Z,69.60
2019-04-27T17:34:09.786Z,68.50
2019-04-27T17:36:38.495Z,66.20
2019-04-27T17:39:10.089Z,66.70
2019-04-27T17:41:42.180Z,67.00
2019-04-27T17:44:12.758Z,65.40
2019-04-27T17:46:42.733Z,66.70
2019-04-27T17:49:09.246Z,69.30
2019-04-27T17:51:40.672Z,69.00
2019-04-27T17:54:11.263Z,69.30
2019-04-27T17:56:48.262Z,67.70
2019-04-27T17:59:10.337Z,69.20
2019-04-27T18:01:38.961Z,71.00
2019-04-27T18:04:10.482Z,72.10
2019-04-27T18:06:39.045Z,69.60
2019-04-27T18:09:10.265Z,72.40
2019-04-27T18:11:38.698Z,72.60
2019-04-27T18:14:11.152Z,71.00
2019-04-27T18:16:39.001Z,73.10
2019-04-27T18:19:11.694Z,72.80
2019-04-27T18:21:42.575Z,72.90
2019-04-27T18:24:15.349Z,73.80
2019-04-27T18:27:03.307Z,73.90
2019-04-27T18:29:31.096Z,72.40
2019-04-27T18:31:59.623Z,71.40
2019-04-27T18:34:28.683Z,70.80
2019-04-27T18:36:57.248Z,69.60
2019-04-27T18:39:25.736Z,80.00
2019-04-27T18:41:54.498Z,81.30
2019-04-27T18:44:23.976Z,81.10
2019-04-27T18:46:53.583Z,80.70
2019-04-27T18:49:27.264Z,81.10
2019-04-27T18:52:06.504Z,81.60
2019-04-27T18:54:38.198Z,81.70
2019-04-27T18:57:05.813Z,69.80
2019-04-27T18:59:34.282Z,79.00
2019-04-27T19:02:02.733Z,69.50
2019-04-27T19:04:31.190Z,69.00
2019-04-27T19:07:00.132Z,76.40
2019-04-27T19:09:28.831Z,75.30
2019-04-27T19:11:57.268Z,76.90
2019-04-27T19:14:25.698Z,75.80
2019-04-27T19:16:54.192Z,75.90
2019-04-27T19:19:22.748Z,77.40
2019-04-27T19:21:51.167Z,77.80
2019-04-27T19:24:19.678Z,72.90
2019-04-27T19:26:52.544Z,73.20
2019-04-27T19:29:22.808Z,71.00
2019-04-27T19:31:52.958Z,70.10
2019-04-27T19:34:21.399Z,69.10
2019-04-27T19:36:49.838Z,69.60
2019-04-27T19:39:18.361Z,69.40
2019-04-27T19:41:58.830Z,70.20
2019-04-27T19:44:18.808Z,70.50
2019-04-27T19:46:49.089Z,70.60
2019-04-27T19:49:19.227Z,70.00
2019-04-27T19:51:47.923Z,70.00
2019-04-27T19:54:16.363Z,71.20
2019-04-27T19:56:44.787Z,69.90
2019-04-27T19:59:18.796Z,71.20
2019-04-27T20:01:49.155Z,73.30
2019-04-27T20:04:19.226Z,75.00
2019-04-27T20:06:48.494Z,75.60
2019-04-27T20:09:19.253Z,76.90
2019-04-27T20:11:47.792Z,76.40
2019-04-27T20:14:16.214Z,77.50
2019-04-27T20:16:44.687Z,78.90
2019-04-27T20:19:13.099Z,78.60
2019-04-27T20:21:41.549Z,79.90
2019-04-27T20:24:11.691Z,80.80
2019-04-27T20:26:40.227Z,79.90
2019-04-27T20:29:11.843Z,83.30
2019-04-27T20:31:41.087Z,84.50
2019-04-27T20:34:09.580Z,85.00
2019-04-27T20:36:38.029Z,84.90
2019-04-27T20:39:07.380Z,82.20
2019-04-27T20:41:35.811Z,79.80
2019-04-27T20:44:04.559Z,81.50
2019-04-27T20:46:33.003Z,80.90
2019-04-27T20:49:03.070Z,82.80
2019-04-27T20:51:53.017Z,82.90
2019-04-27T20:54:22.795Z,81.50
2019-04-27T20:56:53.575Z,77.60
2019-04-27T20:59:22.730Z,77.70
2019-04-27T21:01:51.161Z,78.30
2019-04-27T21:04:24.207Z,79.40
2019-04-27T21:06:57.110Z,81.50
2019-04-27T21:09:25.524Z,82.80
2019-04-27T21:11:53.984Z,82.80
2019-04-27T21:14:22.415Z,81.20
2019-04-27T21:16:51.704Z,80.50
2019-04-27T21:19:21.063Z,80.60
2019-04-27T21:21:51.071Z,80.70
2019-04-27T21:24:20.780Z,82.00
2019-04-27T21:26:51.243Z,80.70
2019-04-27T21:29:20.879Z,81.70
2019-04-27T21:31:49.571Z,84.10
2019-04-27T21:34:18.051Z,84.30
2019-04-27T21:36:46.487Z,85.50
2019-04-27T21:39:14.911Z,86.60
2019-04-27T21:41:43.418Z,86.40
2019-04-27T21:44:11.863Z,85.10
2019-04-27T21:46:41.718Z,84.50
2019-04-27T21:49:11.159Z,83.50
2019-04-27T21:51:58.287Z,84.80
2019-04-27T21:54:28.351Z,84.30
2019-04-27T21:56:56.772Z,84.30
2019-04-27T21:59:26.750Z,81.50
2019-04-27T22:01:57.901Z,80.90
2019-04-27T22:04:26.344Z,83.00
2019-04-27T22:06:54.845Z,82.60
2019-04-27T22:09:23.306Z,81.80
2019-04-27T22:11:51.783Z,81.60
2019-04-27T22:14:21.604Z,78.90
2019-04-27T22:16:51.828Z,80.30
2019-04-27T22:19:22.299Z,82.40
2019-04-27T22:21:52.093Z,82.10
2019-04-27T22:24:23.907Z,80.90
2019-04-27T22:26:52.330Z,80.30
2019-04-27T22:29:22.188Z,80.00
2019-04-27T22:31:51.639Z,79.80
2019-04-27T22:34:21.038Z,80.50
2019-04-27T22:36:49.579Z,81.50
2019-04-27T22:39:25.218Z,81.70
2019-04-27T22:41:55.268Z,82.50
2019-04-27T22:44:25.393Z,83.80
2019-04-27T22:46:54.890Z,85.70
2019-04-27T22:49:23.335Z,86.50
2019-04-27T22:51:53.298Z,86.80
2019-04-27T22:54:21.863Z,84.80
2019-04-27T22:56:51.981Z,83.30
2019-04-27T22:59:27.822Z,83.90
2019-04-27T23:02:06.467Z,84.20
2019-04-27T23:04:36.562Z,80.40
2019-04-27T23:07:04.988Z,79.20
2019-04-27T23:09:33.424Z,78.60
2019-04-27T23:12:03.552Z,79.80
2019-04-27T23:14:31.976Z,77.70
2019-04-27T23:17:04.887Z,76.70
2019-04-27T23:19:33.350Z,77.10
2019-04-27T23:22:01.775Z,76.40
2019-04-27T23:24:31.081Z,79.20
2019-04-27T23:27:03.422Z,79.70
2019-04-27T23:29:30.622Z,82.50
2019-04-27T23:32:04.788Z,83.30
2019-04-27T23:34:33.204Z,84.80
2019-04-27T23:37:01.638Z,86.00
2019-04-27T23:39:30.051Z,86.10
2019-04-27T23:41:58.503Z,86.70
2019-04-27T23:44:26.914Z,87.50
2019-04-27T23:46:55.423Z,87.40
2019-04-27T23:49:23.842Z,87.80
2019-04-27T23:51:53.942Z,88.20
2019-04-27T23:54:22.370Z,87.70
2019-04-27T23:56:51.865Z,87.60
2019-04-27T23:59:25.147Z,87.10
